sensor_id;sensor_type;location;lat;lon;timestamp;temperature;humidity
83120;SHT31;73001;51.784;4.660;2024-02-26T00:01:27;8.70;71.29
83120;SHT31;73001;51.784;4.660;2024-02-26T00:03:52;8.68;71.50
83120;SHT31;73001;51.784;4.660;2024-02-26T00:06:18;8.68;71.23
83120;SHT31;73001;51.784;4.660;2024-02-26T00:08:45;8.64;71.40
83120;SHT31;73001;51.784;4.660;2024-02-26T00:11:10;8.67;71.07
83120;SHT31;73001;51.784;4.660;2024-02-26T00:13:36;8.70;71.23
83120;SHT31;73001;51.784;4.660;2024-02-26T00:16:02;8.75;70.79
83120;SHT31;73001;51.784;4.660;2024-02-26T00:18:28;8.74;70.86
83120;SHT31;73001;51.784;4.660;2024-02-26T00:20:53;8.68;71.05
83120;SHT31;73001;51.784;4.660;2024-02-26T00:23:19;8.74;70.98
83120;SHT31;73001;51.784;4.660;2024-02-26T00:25:44;8.71;71.03
83120;SHT31;73001;51.784;4.660;2024-02-26T00:28:10;8.77;70.88
83120;SHT31;73001;51.784;4.660;2024-02-26T00:30:36;8.75;70.81
83120;SHT31;73001;51.784;4.660;2024-02-26T00:33:01;8.75;70.77
83120;SHT31;73001;51.784;4.660;2024-02-26T00:35:27;8.71;70.62
83120;SHT31;73001;51.784;4.660;2024-02-26T00:37:52;8.71;71.15
83120;SHT31;73001;51.784;4.660;2024-02-26T00:40:18;8.73;70.98
83120;SHT31;73001;51.784;4.660;2024-02-26T00:42:43;8.68;70.95
83120;SHT31;73001;51.784;4.660;2024-02-26T00:45:12;8.71;70.94
83120;SHT31;73001;51.784;4.660;2024-02-26T00:47:37;8.73;70.70
83120;SHT31;73001;51.784;4.660;2024-02-26T00:50:03;8.68;70.57
83120;SHT31;73001;51.784;4.660;2024-02-26T00:52:29;8.71;70.76
83120;SHT31;73001;51.784;4.660;2024-02-26T00:54:54;8.71;71.15
83120;SHT31;73001;51.784;4.660;2024-02-26T00:57:20;8.70;71.25
83120;SHT31;73001;51.784;4.660;2024-02-26T00:59:45;8.70;70.96
83120;SHT31;73001;51.784;4.660;2024-02-26T01:02:10;8.64;70.63
83120;SHT31;73001;51.784;4.660;2024-02-26T01:04:36;8.61;70.65
83120;SHT31;73001;51.784;4.660;2024-02-26T01:07:01;8.56;71.16
83120;SHT31;73001;51.784;4.660;2024-02-26T01:09:27;8.57;71.44
83120;SHT31;73001;51.784;4.660;2024-02-26T01:11:53;8.63;71.21
83120;SHT31;73001;51.784;4.660;2024-02-26T01:14:18;8.61;71.26
83120;SHT31;73001;51.784;4.660;2024-02-26T01:16:43;8.67;71.13
83120;SHT31;73001;51.784;4.660;2024-02-26T01:19:09;8.64;71.17
83120;SHT31;73001;51.784;4.660;2024-02-26T01:21:34;8.63;71.26
83120;SHT31;73001;51.784;4.660;2024-02-26T01:24:00;8.67;71.29
83120;SHT31;73001;51.784;4.660;2024-02-26T01:26:25;8.70;71.14
83120;SHT31;73001;51.784;4.660;2024-02-26T01:28:51;8.67;70.85
83120;SHT31;73001;51.784;4.660;2024-02-26T01:31:16;8.61;71.16
83120;SHT31;73001;51.784;4.660;2024-02-26T01:33:41;8.70;71.10
83120;SHT31;73001;51.784;4.660;2024-02-26T01:36:07;8.67;71.14
83120;SHT31;73001;51.784;4.660;2024-02-26T01:38:32;8.67;70.90
83120;SHT31;73001;51.784;4.660;2024-02-26T01:40:58;8.71;70.93
83120;SHT31;73001;51.784;4.660;2024-02-26T01:43:23;8.68;71.02
83120;SHT31;73001;51.784;4.660;2024-02-26T01:45:49;8.66;71.20
83120;SHT31;73001;51.784;4.660;2024-02-26T01:48:14;8.66;71.29
83120;SHT31;73001;51.784;4.660;2024-02-26T01:50:40;8.66;71.16
83120;SHT31;73001;51.784;4.660;2024-02-26T01:53:07;8.67;71.24
83120;SHT31;73001;51.784;4.660;2024-02-26T01:55:33;8.66;71.01
83120;SHT31;73001;51.784;4.660;2024-02-26T01:57:59;8.64;71.05
83120;SHT31;73001;51.784;4.660;2024-02-26T02:00:25;8.67;71.29
83120;SHT31;73001;51.784;4.660;2024-02-26T02:02:51;8.61;71.15
83120;SHT31;73001;51.784;4.660;2024-02-26T02:05:20;8.63;71.21
83120;SHT31;73001;51.784;4.660;2024-02-26T02:07:46;8.61;71.38
83120;SHT31;73001;51.784;4.660;2024-02-26T02:10:15;8.59;71.35
83120;SHT31;73001;51.784;4.660;2024-02-26T02:12:40;8.53;71.57
83120;SHT31;73001;51.784;4.660;2024-02-26T02:15:06;8.52;71.80
83120;SHT31;73001;51.784;4.660;2024-02-26T02:17:32;8.52;71.91
83120;SHT31;73001;51.784;4.660;2024-02-26T02:19:57;8.52;71.85
83120;SHT31;73001;51.784;4.660;2024-02-26T02:22:23;8.52;71.86
83120;SHT31;73001;51.784;4.660;2024-02-26T02:24:49;8.49;71.85
83120;SHT31;73001;51.784;4.660;2024-02-26T02:27:15;8.49;72.11
83120;SHT31;73001;51.784;4.660;2024-02-26T02:29:42;8.44;72.38
83120;SHT31;73001;51.784;4.660;2024-02-26T02:32:08;8.35;72.86
83120;SHT31;73001;51.784;4.660;2024-02-26T02:34:34;8.32;72.98
83120;SHT31;73001;51.784;4.660;2024-02-26T02:36:59;8.37;73.32
83120;SHT31;73001;51.784;4.660;2024-02-26T02:39:25;8.35;73.45
83120;SHT31;73001;51.784;4.660;2024-02-26T02:41:50;8.35;73.46
83120;SHT31;73001;51.784;4.660;2024-02-26T02:44:16;8.25;73.88
83120;SHT31;73001;51.784;4.660;2024-02-26T02:46:42;8.29;73.89
83120;SHT31;73001;51.784;4.660;2024-02-26T02:49:11;8.26;74.04
83120;SHT31;73001;51.784;4.660;2024-02-26T02:51:37;8.21;73.74
83120;SHT31;73001;51.784;4.660;2024-02-26T02:54:02;8.22;74.05
83120;SHT31;73001;51.784;4.660;2024-02-26T02:56:28;8.19;74.04
83120;SHT31;73001;51.784;4.660;2024-02-26T02:58:53;8.12;74.31
83120;SHT31;73001;51.784;4.660;2024-02-26T03:01:19;8.12;74.29
83120;SHT31;73001;51.784;4.660;2024-02-26T03:03:45;8.10;74.61
83120;SHT31;73001;51.784;4.660;2024-02-26T03:06:10;8.10;74.41
83120;SHT31;73001;51.784;4.660;2024-02-26T03:08:36;8.10;74.24
83120;SHT31;73001;51.784;4.660;2024-02-26T03:11:05;8.13;74.47
83120;SHT31;73001;51.784;4.660;2024-02-26T03:13:30;8.10;74.36
83120;SHT31;73001;51.784;4.660;2024-02-26T03:15:56;8.09;74.37
83120;SHT31;73001;51.784;4.660;2024-02-26T03:18:22;8.09;74.65
83120;SHT31;73001;51.784;4.660;2024-02-26T03:20:48;8.06;74.47
83120;SHT31;73001;51.784;4.660;2024-02-26T03:23:14;8.05;74.54
83120;SHT31;73001;51.784;4.660;2024-02-26T03:25:45;8.06;74.57
83120;SHT31;73001;51.784;4.660;2024-02-26T03:28:11;8.03;74.44
83120;SHT31;73001;51.784;4.660;2024-02-26T03:30:38;8.02;74.62
83120;SHT31;73001;51.784;4.660;2024-02-26T03:33:03;7.98;74.49
83120;SHT31;73001;51.784;4.660;2024-02-26T03:35:28;7.95;74.69
83120;SHT31;73001;51.784;4.660;2024-02-26T03:37:54;7.94;74.86
83120;SHT31;73001;51.784;4.660;2024-02-26T03:40:19;7.94;74.74
83120;SHT31;73001;51.784;4.660;2024-02-26T03:42:45;7.88;74.56
83120;SHT31;73001;51.784;4.660;2024-02-26T03:45:11;7.91;74.62
83120;SHT31;73001;51.784;4.660;2024-02-26T03:47:38;7.86;74.70
83120;SHT31;73001;51.784;4.660;2024-02-26T03:50:06;7.92;74.25
83120;SHT31;73001;51.784;4.660;2024-02-26T03:52:32;7.89;74.25
83120;SHT31;73001;51.784;4.660;2024-02-26T03:54:58;7.98;74.26
83120;SHT31;73001;51.784;4.660;2024-02-26T03:57:23;7.95;74.32
83120;SHT31;73001;51.784;4.660;2024-02-26T03:59:49;7.92;74.38
83120;SHT31;73001;51.784;4.660;2024-02-26T04:02:14;7.88;74.37
83120;SHT31;73001;51.784;4.660;2024-02-26T04:04:39;7.85;74.19
83120;SHT31;73001;51.784;4.660;2024-02-26T04:07:05;7.86;74.45
83120;SHT31;73001;51.784;4.660;2024-02-26T04:09:31;7.81;74.70
83120;SHT31;73001;51.784;4.660;2024-02-26T04:11:57;7.82;74.72
83120;SHT31;73001;51.784;4.660;2024-02-26T04:14:22;7.79;74.99
83120;SHT31;73001;51.784;4.660;2024-02-26T04:16:47;7.81;75.08
83120;SHT31;73001;51.784;4.660;2024-02-26T04:19:16;7.84;75.12
83120;SHT31;73001;51.784;4.660;2024-02-26T04:21:42;7.82;75.32
83120;SHT31;73001;51.784;4.660;2024-02-26T04:24:07;7.81;74.96
83120;SHT31;73001;51.784;4.660;2024-02-26T04:26:33;7.75;75.10
83120;SHT31;73001;51.784;4.660;2024-02-26T04:28:58;7.81;75.20
83120;SHT31;73001;51.784;4.660;2024-02-26T04:31:24;7.78;75.48
83120;SHT31;73001;51.784;4.660;2024-02-26T04:33:50;7.78;74.93
83120;SHT31;73001;51.784;4.660;2024-02-26T04:36:15;7.72;75.22
83120;SHT31;73001;51.784;4.660;2024-02-26T04:38:42;7.70;75.41
83120;SHT31;73001;51.784;4.660;2024-02-26T04:41:08;7.70;75.49
83120;SHT31;73001;51.784;4.660;2024-02-26T04:43:33;7.70;75.60
83120;SHT31;73001;51.784;4.660;2024-02-26T04:45:58;7.72;75.35
83120;SHT31;73001;51.784;4.660;2024-02-26T04:48:24;7.72;75.50
83120;SHT31;73001;51.784;4.660;2024-02-26T04:50:49;7.77;75.19
83120;SHT31;73001;51.784;4.660;2024-02-26T04:53:15;7.79;75.14
83120;SHT31;73001;51.784;4.660;2024-02-26T04:55:40;7.77;75.34
83120;SHT31;73001;51.784;4.660;2024-02-26T04:58:06;7.77;75.38
83120;SHT31;73001;51.784;4.660;2024-02-26T05:00:31;7.81;75.21
83120;SHT31;73001;51.784;4.660;2024-02-26T05:02:56;7.81;75.02
83120;SHT31;73001;51.784;4.660;2024-02-26T05:05:22;7.79;74.94
83120;SHT31;73001;51.784;4.660;2024-02-26T05:07:47;7.81;74.91
83120;SHT31;73001;51.784;4.660;2024-02-26T05:10:13;7.75;74.96
83120;SHT31;73001;51.784;4.660;2024-02-26T05:12:38;7.74;74.97
83120;SHT31;73001;51.784;4.660;2024-02-26T05:15:04;7.75;74.82
83120;SHT31;73001;51.784;4.660;2024-02-26T05:17:30;7.79;74.71
83120;SHT31;73001;51.784;4.660;2024-02-26T05:19:55;7.78;74.94
83120;SHT31;73001;51.784;4.660;2024-02-26T05:22:20;7.78;74.66
83120;SHT31;73001;51.784;4.660;2024-02-26T05:24:46;7.77;74.50
83120;SHT31;73001;51.784;4.660;2024-02-26T05:27:11;7.74;74.77
83120;SHT31;73001;51.784;4.660;2024-02-26T05:29:37;7.78;74.54
83120;SHT31;73001;51.784;4.660;2024-02-26T05:32:04;7.78;74.66
83120;SHT31;73001;51.784;4.660;2024-02-26T05:34:30;7.79;74.87
83120;SHT31;73001;51.784;4.660;2024-02-26T05:36:55;7.82;74.72
83120;SHT31;73001;51.784;4.660;2024-02-26T05:39:21;7.85;74.57
83120;SHT31;73001;51.784;4.660;2024-02-26T05:41:47;7.74;74.47
83120;SHT31;73001;51.784;4.660;2024-02-26T05:44:12;7.75;75.12
83120;SHT31;73001;51.784;4.660;2024-02-26T05:46:38;7.81;74.77
83120;SHT31;73001;51.784;4.660;2024-02-26T05:49:03;7.75;74.95
83120;SHT31;73001;51.784;4.660;2024-02-26T05:51:29;7.78;74.94
83120;SHT31;73001;51.784;4.660;2024-02-26T05:53:54;7.72;74.85
83120;SHT31;73001;51.784;4.660;2024-02-26T05:56:23;7.71;75.06
83120;SHT31;73001;51.784;4.660;2024-02-26T05:58:48;7.72;75.14
83120;SHT31;73001;51.784;4.660;2024-02-26T06:01:16;7.72;75.09
83120;SHT31;73001;51.784;4.660;2024-02-26T06:03:42;7.74;74.93
83120;SHT31;73001;51.784;4.660;2024-02-26T06:06:07;7.70;74.90
83120;SHT31;73001;51.784;4.660;2024-02-26T06:08:33;7.75;75.24
83120;SHT31;73001;51.784;4.660;2024-02-26T06:10:58;7.79;75.15
83120;SHT31;73001;51.784;4.660;2024-02-26T06:13:24;7.74;74.86
83120;SHT31;73001;51.784;4.660;2024-02-26T06:15:49;7.74;75.26
83120;SHT31;73001;51.784;4.660;2024-02-26T06:18:15;7.78;75.21
83120;SHT31;73001;51.784;4.660;2024-02-26T06:20:41;7.78;75.17
83120;SHT31;73001;51.784;4.660;2024-02-26T06:23:07;7.74;75.10
83120;SHT31;73001;51.784;4.660;2024-02-26T06:25:32;7.71;75.16
83120;SHT31;73001;51.784;4.660;2024-02-26T06:27:58;7.68;75.24
83120;SHT31;73001;51.784;4.660;2024-02-26T06:30:23;7.67;75.58
83120;SHT31;73001;51.784;4.660;2024-02-26T06:32:49;7.62;75.37
83120;SHT31;73001;51.784;4.660;2024-02-26T06:35:14;7.62;75.61
83120;SHT31;73001;51.784;4.660;2024-02-26T06:37:40;7.62;75.25
83120;SHT31;73001;51.784;4.660;2024-02-26T06:40:06;7.67;75.66
83120;SHT31;73001;51.784;4.660;2024-02-26T06:42:32;7.61;75.67
83120;SHT31;73001;51.784;4.660;2024-02-26T06:44:58;7.65;75.63
83120;SHT31;73001;51.784;4.660;2024-02-26T06:47:23;7.64;75.79
83120;SHT31;73001;51.784;4.660;2024-02-26T06:49:49;7.68;75.55
83120;SHT31;73001;51.784;4.660;2024-02-26T06:52:14;7.70;75.82
83120;SHT31;73001;51.784;4.660;2024-02-26T06:54:40;7.70;75.79
83120;SHT31;73001;51.784;4.660;2024-02-26T06:57:05;7.72;75.77
83120;SHT31;73001;51.784;4.660;2024-02-26T06:59:30;7.71;75.70
83120;SHT31;73001;51.784;4.660;2024-02-26T07:01:56;7.75;75.78
83120;SHT31;73001;51.784;4.660;2024-02-26T07:04:21;7.67;75.67
83120;SHT31;73001;51.784;4.660;2024-02-26T07:06:47;7.71;76.06
83120;SHT31;73001;51.784;4.660;2024-02-26T07:09:13;7.65;76.23
83120;SHT31;73001;51.784;4.660;2024-02-26T07:11:39;7.70;76.41
83120;SHT31;73001;51.784;4.660;2024-02-26T07:14:08;7.72;76.43
83120;SHT31;73001;51.784;4.660;2024-02-26T07:16:33;7.62;76.42
83120;SHT31;73001;51.784;4.660;2024-02-26T07:18:59;7.67;76.51
83120;SHT31;73001;51.784;4.660;2024-02-26T07:21:24;7.70;76.82
83120;SHT31;73001;51.784;4.660;2024-02-26T07:23:50;7.70;76.82
83120;SHT31;73001;51.784;4.660;2024-02-26T07:26:15;7.72;76.92
83120;SHT31;73001;51.784;4.660;2024-02-26T07:28:42;7.65;76.62
83120;SHT31;73001;51.784;4.660;2024-02-26T07:31:08;7.58;77.20
83120;SHT31;73001;51.784;4.660;2024-02-26T07:33:33;7.64;77.25
83120;SHT31;73001;51.784;4.660;2024-02-26T07:35:59;7.62;77.22
83120;SHT31;73001;51.784;4.660;2024-02-26T07:38:24;7.51;77.17
83120;SHT31;73001;51.784;4.660;2024-02-26T07:40:49;7.51;77.67
83120;SHT31;73001;51.784;4.660;2024-02-26T07:43:15;7.53;77.98
83120;SHT31;73001;51.784;4.660;2024-02-26T07:45:40;7.57;77.68
83120;SHT31;73001;51.784;4.660;2024-02-26T07:48:06;7.53;77.64
83120;SHT31;73001;51.784;4.660;2024-02-26T07:50:32;7.50;77.73
83120;SHT31;73001;51.784;4.660;2024-02-26T07:52:57;7.47;78.26
83120;SHT31;73001;51.784;4.660;2024-02-26T07:55:23;7.47;78.25
83120;SHT31;73001;51.784;4.660;2024-02-26T07:57:49;7.53;78.35
83120;SHT31;73001;51.784;4.660;2024-02-26T08:00:15;7.53;78.12
83120;SHT31;73001;51.784;4.660;2024-02-26T08:02:42;7.53;78.20
83120;SHT31;73001;51.784;4.660;2024-02-26T08:05:09;7.47;78.33
83120;SHT31;73001;51.784;4.660;2024-02-26T08:07:34;7.47;78.45
83120;SHT31;73001;51.784;4.660;2024-02-26T08:10:00;7.50;78.44
83120;SHT31;73001;51.784;4.660;2024-02-26T08:12:25;7.50;78.68
83120;SHT31;73001;51.784;4.660;2024-02-26T08:14:51;7.53;78.31
83120;SHT31;73001;51.784;4.660;2024-02-26T08:17:16;7.53;78.33
83120;SHT31;73001;51.784;4.660;2024-02-26T08:19:42;7.53;78.58
83120;SHT31;73001;51.784;4.660;2024-02-26T08:22:07;7.50;78.56
83120;SHT31;73001;51.784;4.660;2024-02-26T08:24:33;7.51;78.61
83120;SHT31;73001;51.784;4.660;2024-02-26T08:26:58;7.48;78.45
83120;SHT31;73001;51.784;4.660;2024-02-26T08:29:24;7.44;78.74
83120;SHT31;73001;51.784;4.660;2024-02-26T08:31:49;7.46;79.04
83120;SHT31;73001;51.784;4.660;2024-02-26T08:34:15;7.44;78.74
83120;SHT31;73001;51.784;4.660;2024-02-26T08:36:40;7.48;79.30
83120;SHT31;73001;51.784;4.660;2024-02-26T08:39:08;7.55;78.95
83120;SHT31;73001;51.784;4.660;2024-02-26T08:41:34;7.55;78.94
83120;SHT31;73001;51.784;4.660;2024-02-26T08:43:59;7.55;79.09
83120;SHT31;73001;51.784;4.660;2024-02-26T08:46:25;7.54;79.26
83120;SHT31;73001;51.784;4.660;2024-02-26T08:48:50;7.55;79.28
83120;SHT31;73001;51.784;4.660;2024-02-26T08:51:16;7.55;79.11
83120;SHT31;73001;51.784;4.660;2024-02-26T08:53:42;7.51;79.11
83120;SHT31;73001;51.784;4.660;2024-02-26T08:56:07;7.58;79.42
83120;SHT31;73001;51.784;4.660;2024-02-26T08:58:32;7.55;79.40
83120;SHT31;73001;51.784;4.660;2024-02-26T09:00:58;7.54;79.49
83120;SHT31;73001;51.784;4.660;2024-02-26T09:03:23;7.57;79.38
83120;SHT31;73001;51.784;4.660;2024-02-26T09:05:49;7.58;79.32
83120;SHT31;73001;51.784;4.660;2024-02-26T09:08:14;7.58;79.47
83120;SHT31;73001;51.784;4.660;2024-02-26T09:10:41;7.60;79.25
83120;SHT31;73001;51.784;4.660;2024-02-26T09:13:07;7.58;79.45
83120;SHT31;73001;51.784;4.660;2024-02-26T09:15:32;7.62;79.39
83120;SHT31;73001;51.784;4.660;2024-02-26T09:17:58;7.70;79.43
83120;SHT31;73001;51.784;4.660;2024-02-26T09:20:23;7.71;79.17
83120;SHT31;73001;51.784;4.660;2024-02-26T09:22:49;7.68;78.62
83120;SHT31;73001;51.784;4.660;2024-02-26T09:25:16;7.67;78.89
83120;SHT31;73001;51.784;4.660;2024-02-26T09:27:42;7.64;79.30
83120;SHT31;73001;51.784;4.660;2024-02-26T09:30:12;7.71;78.98
83120;SHT31;73001;51.784;4.660;2024-02-26T09:32:38;7.70;79.03
83120;SHT31;73001;51.784;4.660;2024-02-26T09:35:07;7.75;79.31
83120;SHT31;73001;51.784;4.660;2024-02-26T09:37:33;7.77;78.59
83120;SHT31;73001;51.784;4.660;2024-02-26T09:39:59;7.70;78.56
83120;SHT31;73001;51.784;4.660;2024-02-26T09:42:26;7.67;78.69
83120;SHT31;73001;51.784;4.660;2024-02-26T09:44:54;7.72;79.22
83120;SHT31;73001;51.784;4.660;2024-02-26T09:47:21;7.72;78.88
83120;SHT31;73001;51.784;4.660;2024-02-26T09:49:50;7.70;78.67
83120;SHT31;73001;51.784;4.660;2024-02-26T09:52:16;7.81;78.80
83120;SHT31;73001;51.784;4.660;2024-02-26T09:54:47;7.84;78.63
83120;SHT31;73001;51.784;4.660;2024-02-26T09:57:15;7.82;78.50
83120;SHT31;73001;51.784;4.660;2024-02-26T09:59:43;7.84;78.92
83120;SHT31;73001;51.784;4.660;2024-02-26T10:02:13;7.84;78.75
83120;SHT31;73001;51.784;4.660;2024-02-26T10:04:40;7.81;78.70
83120;SHT31;73001;51.784;4.660;2024-02-26T10:07:13;7.78;78.53
83120;SHT31;73001;51.784;4.660;2024-02-26T10:09:39;7.78;78.77
83120;SHT31;73001;51.784;4.660;2024-02-26T10:12:08;7.74;78.81
83120;SHT31;73001;51.784;4.660;2024-02-26T10:14:35;7.70;79.08
83120;SHT31;73001;51.784;4.660;2024-02-26T10:17:01;7.74;79.26
83120;SHT31;73001;51.784;4.660;2024-02-26T10:19:29;7.75;79.27
83120;SHT31;73001;51.784;4.660;2024-02-26T10:22:00;7.74;79.16
83120;SHT31;73001;51.784;4.660;2024-02-26T10:24:26;7.75;79.01
83120;SHT31;73001;51.784;4.660;2024-02-26T10:26:54;7.68;79.15
83120;SHT31;73001;51.784;4.660;2024-02-26T10:29:20;7.68;79.04
83120;SHT31;73001;51.784;4.660;2024-02-26T10:31:46;7.68;79.17
83120;SHT31;73001;51.784;4.660;2024-02-26T10:34:12;7.65;78.99
83120;SHT31;73001;51.784;4.660;2024-02-26T10:36:38;7.64;79.03
83120;SHT31;73001;51.784;4.660;2024-02-26T10:39:06;7.60;79.22
83120;SHT31;73001;51.784;4.660;2024-02-26T10:41:35;7.61;79.37
83120;SHT31;73001;51.784;4.660;2024-02-26T10:44:00;7.67;79.43
83120;SHT31;73001;51.784;4.660;2024-02-26T10:46:26;7.64;79.82
83120;SHT31;73001;51.784;4.660;2024-02-26T10:48:53;7.67;79.50
83120;SHT31;73001;51.784;4.660;2024-02-26T10:51:26;7.67;79.52
83120;SHT31;73001;51.784;4.660;2024-02-26T10:53:55;7.67;79.32
83120;SHT31;73001;51.784;4.660;2024-02-26T10:56:26;7.60;79.36
83120;SHT31;73001;51.784;4.660;2024-02-26T10:58:53;7.61;79.51
83120;SHT31;73001;51.784;4.660;2024-02-26T11:01:19;7.62;79.75
83120;SHT31;73001;51.784;4.660;2024-02-26T11:03:48;7.62;79.31
83120;SHT31;73001;51.784;4.660;2024-02-26T11:06:16;7.65;79.69
83120;SHT31;73001;51.784;4.660;2024-02-26T11:08:43;7.68;79.39
83120;SHT31;73001;51.784;4.660;2024-02-26T11:11:09;7.68;79.52
83120;SHT31;73001;51.784;4.660;2024-02-26T11:13:35;7.70;79.30
83120;SHT31;73001;51.784;4.660;2024-02-26T11:16:06;7.75;79.51
83120;SHT31;73001;51.784;4.660;2024-02-26T11:18:33;7.70;79.57
83120;SHT31;73001;51.784;4.660;2024-02-26T11:21:01;7.65;79.64
83120;SHT31;73001;51.784;4.660;2024-02-26T11:23:28;7.72;79.85
83120;SHT31;73001;51.784;4.660;2024-02-26T11:25:57;7.75;79.65
83120;SHT31;73001;51.784;4.660;2024-02-26T11:28:28;7.71;79.79
83120;SHT31;73001;51.784;4.660;2024-02-26T11:30:55;7.72;79.67
83120;SHT31;73001;51.784;4.660;2024-02-26T11:33:22;7.72;79.65
83120;SHT31;73001;51.784;4.660;2024-02-26T11:35:48;7.75;79.61
83120;SHT31;73001;51.784;4.660;2024-02-26T11:38:20;7.79;79.82
83120;SHT31;73001;51.784;4.660;2024-02-26T11:40:47;7.82;79.78
83120;SHT31;73001;51.784;4.660;2024-02-26T11:43:13;7.81;79.67
83120;SHT31;73001;51.784;4.660;2024-02-26T11:48:11;7.71;79.69
83120;SHT31;73001;51.784;4.660;2024-02-26T11:50:41;7.70;80.13
83120;SHT31;73001;51.784;4.660;2024-02-26T11:53:28;7.72;80.04
83120;SHT31;73001;51.784;4.660;2024-02-26T11:59:01;7.82;80.11
83120;SHT31;73001;51.784;4.660;2024-02-26T12:01:43;7.82;80.23
83120;SHT31;73001;51.784;4.660;2024-02-26T12:07:17;7.94;80.38
83120;SHT31;73001;51.784;4.660;2024-02-26T12:09:41;7.95;79.99
83120;SHT31;73001;51.784;4.660;2024-02-26T12:12:09;7.94;79.85
83120;SHT31;73001;51.784;4.660;2024-02-26T12:14:39;7.95;79.89
83120;SHT31;73001;51.784;4.660;2024-02-26T12:17:06;7.92;79.90
83120;SHT31;73001;51.784;4.660;2024-02-26T12:19:35;7.95;79.98
83120;SHT31;73001;51.784;4.660;2024-02-26T12:22:01;7.98;80.11
83120;SHT31;73001;51.784;4.660;2024-02-26T12:24:26;8.01;79.75
83120;SHT31;73001;51.784;4.660;2024-02-26T12:26:52;7.95;79.88
83120;SHT31;73001;51.784;4.660;2024-02-26T12:29:17;7.96;80.09
83120;SHT31;73001;51.784;4.660;2024-02-26T12:31:43;8.02;80.21
83120;SHT31;73001;51.784;4.660;2024-02-26T12:34:09;8.06;80.08
83120;SHT31;73001;51.784;4.660;2024-02-26T12:36:36;8.06;79.99
83120;SHT31;73001;51.784;4.660;2024-02-26T12:39:05;8.07;79.77
83120;SHT31;73001;51.784;4.660;2024-02-26T12:41:35;8.07;79.53
83120;SHT31;73001;51.784;4.660;2024-02-26T12:44:01;8.09;79.96
83120;SHT31;73001;51.784;4.660;2024-02-26T12:46:26;8.13;79.67
83120;SHT31;73001;51.784;4.660;2024-02-26T12:48:55;8.19;79.98
83120;SHT31;73001;51.784;4.660;2024-02-26T12:51:23;8.25;79.56
83120;SHT31;73001;51.784;4.660;2024-02-26T12:53:50;8.28;79.35
83120;SHT31;73001;51.784;4.660;2024-02-26T12:56:18;8.29;79.12
83120;SHT31;73001;51.784;4.660;2024-02-26T12:58:45;8.32;79.45
83120;SHT31;73001;51.784;4.660;2024-02-26T13:01:18;8.35;79.14
83120;SHT31;73001;51.784;4.660;2024-02-26T13:03:44;8.40;79.11
83120;SHT31;73001;51.784;4.660;2024-02-26T13:06:11;8.44;78.81
83120;SHT31;73001;51.784;4.660;2024-02-26T13:08:36;8.52;79.01
83120;SHT31;73001;51.784;4.660;2024-02-26T13:11:02;8.47;78.57
83120;SHT31;73001;51.784;4.660;2024-02-26T13:13:28;8.52;79.10
83120;SHT31;73001;51.784;4.660;2024-02-26T13:18:30;8.39;78.81
83120;SHT31;73001;51.784;4.660;2024-02-26T13:21:13;8.46;79.04
83120;SHT31;73001;51.784;4.660;2024-02-26T13:23:41;8.47;78.35
83120;SHT31;73001;51.784;4.660;2024-02-26T13:26:08;8.44;78.79
83120;SHT31;73001;51.784;4.660;2024-02-26T13:28:34;8.42;78.44
83120;SHT31;73001;51.784;4.660;2024-02-26T13:31:00;8.49;78.65
83120;SHT31;73001;51.784;4.660;2024-02-26T13:33:30;8.53;78.74
83120;SHT31;73001;51.784;4.660;2024-02-26T13:35:57;8.53;78.79
83120;SHT31;73001;51.784;4.660;2024-02-26T13:38:23;8.60;78.51
83120;SHT31;73001;51.784;4.660;2024-02-26T13:40:50;8.60;78.25
83120;SHT31;73001;51.784;4.660;2024-02-26T13:43:15;8.57;78.05
83120;SHT31;73001;51.784;4.660;2024-02-26T13:45:41;8.60;78.49
83120;SHT31;73001;51.784;4.660;2024-02-26T13:48:10;8.56;77.95
83120;SHT31;73001;51.784;4.660;2024-02-26T13:50:37;8.56;78.30
83120;SHT31;73001;51.784;4.660;2024-02-26T13:53:03;8.64;78.55
83120;SHT31;73001;51.784;4.660;2024-02-26T13:55:30;8.66;77.64
83120;SHT31;73001;51.784;4.660;2024-02-26T13:57:58;8.57;77.86
83120;SHT31;73001;51.784;4.660;2024-02-26T14:00:25;8.68;78.22
83120;SHT31;73001;51.784;4.660;2024-02-26T14:02:51;8.68;78.29
83120;SHT31;73001;51.784;4.660;2024-02-26T14:05:17;8.67;78.30
83120;SHT31;73001;51.784;4.660;2024-02-26T14:07:42;8.61;77.71
83120;SHT31;73001;51.784;4.660;2024-02-26T14:10:13;8.59;77.96
83120;SHT31;73001;51.784;4.660;2024-02-26T14:12:39;8.59;77.93
83120;SHT31;73001;51.784;4.660;2024-02-26T14:15:10;8.61;78.24
83120;SHT31;73001;51.784;4.660;2024-02-26T14:17:35;8.63;78.00
83120;SHT31;73001;51.784;4.660;2024-02-26T14:20:01;8.61;78.17
83120;SHT31;73001;51.784;4.660;2024-02-26T14:22:28;8.67;78.10
83120;SHT31;73001;51.784;4.660;2024-02-26T14:24:56;8.68;77.94
83120;SHT31;73001;51.784;4.660;2024-02-26T14:27:21;8.64;77.40
83120;SHT31;73001;51.784;4.660;2024-02-26T14:29:48;8.64;77.81
83120;SHT31;73001;51.784;4.660;2024-02-26T14:32:14;8.67;78.23
83120;SHT31;73001;51.784;4.660;2024-02-26T14:34:40;8.70;78.11
83120;SHT31;73001;51.784;4.660;2024-02-26T14:37:06;8.74;78.07
83120;SHT31;73001;51.784;4.660;2024-02-26T14:39:32;8.83;77.73
83120;SHT31;73001;51.784;4.660;2024-02-26T14:41:58;8.92;77.71
83120;SHT31;73001;51.784;4.660;2024-02-26T14:44:24;8.95;77.31
83120;SHT31;73001;51.784;4.660;2024-02-26T14:46:50;8.91;76.98
83120;SHT31;73001;51.784;4.660;2024-02-26T14:49:15;8.89;77.03
83120;SHT31;73001;51.784;4.660;2024-02-26T14:51:41;8.87;76.77
83120;SHT31;73001;51.784;4.660;2024-02-26T14:54:07;8.83;76.36
83120;SHT31;73001;51.784;4.660;2024-02-26T14:56:32;8.83;76.01
83120;SHT31;73001;51.784;4.660;2024-02-26T14:58:58;8.75;76.64
83120;SHT31;73001;51.784;4.660;2024-02-26T15:01:24;8.68;76.25
83120;SHT31;73001;51.784;4.660;2024-02-26T15:03:49;8.67;76.69
83120;SHT31;73001;51.784;4.660;2024-02-26T15:06:15;8.68;76.76
83120;SHT31;73001;51.784;4.660;2024-02-26T15:08:40;8.67;76.77
83120;SHT31;73001;51.784;4.660;2024-02-26T15:11:05;8.71;76.91
83120;SHT31;73001;51.784;4.660;2024-02-26T15:13:31;8.75;76.33
83120;SHT31;73001;51.784;4.660;2024-02-26T15:15:57;8.78;75.99
83120;SHT31;73001;51.784;4.660;2024-02-26T15:18:22;8.78;77.01
83120;SHT31;73001;51.784;4.660;2024-02-26T15:20:48;8.87;76.41
83120;SHT31;73001;51.784;4.660;2024-02-26T15:23:13;8.87;76.32
83120;SHT31;73001;51.784;4.660;2024-02-26T15:25:39;8.88;75.87
83120;SHT31;73001;51.784;4.660;2024-02-26T15:28:07;8.88;75.89
83120;SHT31;73001;51.784;4.660;2024-02-26T15:30:32;8.88;75.57
83120;SHT31;73001;51.784;4.660;2024-02-26T15:32:59;8.87;75.61
83120;SHT31;73001;51.784;4.660;2024-02-26T15:35:25;8.84;75.30
83120;SHT31;73001;51.784;4.660;2024-02-26T15:37:50;8.80;76.02
83120;SHT31;73001;51.784;4.660;2024-02-26T15:40:16;8.75;75.81
83120;SHT31;73001;51.784;4.660;2024-02-26T15:42:42;8.71;75.21
83120;SHT31;73001;51.784;4.660;2024-02-26T15:45:08;8.71;75.70
83120;SHT31;73001;51.784;4.660;2024-02-26T15:47:33;8.71;75.65
83120;SHT31;73001;51.784;4.660;2024-02-26T15:50:00;8.71;75.77